Thursday, April 24, 2014, 4:22 AM EDT

KJYO, Leesburg / Godfrey

Location: Leesburg, VA, United States Lat: 39.083
Local Time: 4:22 AM EDT ( 8:22 GMT) Lon: -77.567
Time Zone: US/Eastern Elev: 390 ft

Show me the last for .
Show Decoded

2014-04-24 03:55 METAR KJYO 240755Z AUTO 33008KT 10SM CLR 07/M02 A3004 RMK AO2 =
2014-04-24 03:35 METAR KJYO 240735Z AUTO 32009KT 10SM CLR 07/M01 A3004 RMK AO2 =
2014-04-24 03:15 METAR KJYO 240715Z AUTO 32006KT 10SM CLR 06/M01 A3003 RMK AO2 =
2014-04-24 02:55 METAR KJYO 240655Z AUTO 31007KT 10SM CLR 06/M01 A3002 RMK AO2 =
2014-04-24 02:35 METAR KJYO 240635Z AUTO 32006KT 10SM CLR 07/00 A3003 RMK AO2 =
2014-04-24 02:15 METAR KJYO 240615Z AUTO 31008KT 10SM CLR 07/00 A3003 RMK AO2 =
2014-04-24 01:55 METAR KJYO 240555Z AUTO 31007G15KT 10SM CLR 07/00 A3003 RMK AO2 =
2014-04-24 01:35 METAR KJYO 240535Z AUTO 31008KT 10SM CLR 07/00 A3003 RMK AO2 =
2014-04-24 01:15 METAR KJYO 240515Z AUTO 31008KT 10SM CLR 07/00 A3002 RMK AO2 =
2014-04-24 00:55 METAR KJYO 240455Z AUTO 32009KT 10SM CLR 07/00 A3002 RMK AO2 =
2014-04-24 00:35 METAR KJYO 240435Z AUTO 32011G14KT 10SM CLR 07/00 A3002 RMK AO2 =
2014-04-24 00:15 METAR KJYO 240415Z AUTO 32012G15KT 10SM CLR 08/00 A3002 RMK AO2 =
2014-04-23 23:55 METAR KJYO 240355Z AUTO 31013G21KT 10SM CLR 08/00 A3001 RMK AO2 =
2014-04-23 23:35 METAR KJYO 240335Z AUTO 32015G23KT 10SM CLR 08/00 A3001 RMK AO2 =
2014-04-23 23:15 METAR KJYO 240315Z AUTO 32017G25KT 10SM CLR 09/00 A2999 RMK AO2 =
2014-04-23 22:55 METAR KJYO 240255Z AUTO 32019G27KT 10SM CLR 09/00 A3000 RMK AO2 =
2014-04-23 22:35 METAR KJYO 240235Z AUTO 34014G21KT 10SM CLR 09/01 A3000 RMK AO2 =
2014-04-23 22:15 METAR KJYO 240215Z AUTO 33010KT 10SM CLR 09/02 A3001 RMK AO2 =
2014-04-23 21:55 METAR KJYO 240155Z AUTO 36008KT 10SM SCT050 10/02 A3001 RMK AO2 =
2014-04-23 21:35 METAR KJYO 240135Z AUTO 36006KT 10SM BKN050 10/02 A3000 RMK AO2 =
2014-04-23 20:55 METAR KJYO 240055Z AUTO 36007KT 10SM CLR 10/02 A2997 RMK AO2 =
2014-04-23 20:35 METAR KJYO 240035Z AUTO 36007KT 10SM SCT055 11/02 A2995 RMK AO2 =
2014-04-23 20:15 METAR KJYO 240015Z AUTO 35010G15KT 10SM CLR 11/02 A2994 RMK AO2 =
2014-04-23 19:55 METAR KJYO 232355Z AUTO 32013G19KT 10SM CLR 11/02 A2992 RMK AO2 =
2014-04-23 19:35 METAR KJYO 232335Z AUTO 32012G20KT 10SM CLR 12/02 A2991 RMK AO2 =
2014-04-23 19:15 METAR KJYO 232315Z AUTO 32016G20KT 10SM CLR 12/02 A2991 RMK AO2 =
2014-04-23 18:55 METAR KJYO 232255Z AUTO 33014G23KT 10SM CLR 12/02 A2990 RMK AO2 =
2014-04-23 18:35 METAR KJYO 232235Z AUTO 33014G24KT 10SM CLR 12/03 A2990 RMK AO2 =
2014-04-23 18:15 METAR KJYO 232215Z AUTO 32017G26KT 10SM CLR 12/03 A2990 RMK AO2 =
2014-04-23 17:55 METAR KJYO 232155Z AUTO 32019G28KT 10SM CLR 13/03 A2990 RMK AO2 =
2014-04-23 17:35 METAR KJYO 232135Z AUTO 10SM SCT050 13/03 A2989 RMK AO2 =
2014-04-23 17:15 METAR KJYO 232115Z AUTO 35021G30KT 10SM BKN050 14/03 A2989 RMK AO2 =
2014-04-23 16:55 METAR KJYO 232055Z AUTO 34019G24KT 10SM OVC050 15/03 A2989 RMK AO2 =
2014-04-23 16:35 METAR KJYO 232035Z AUTO 34017G21KT 10SM BKN050 BKN055 15/03 A2988 RMK AO2 =
2014-04-23 16:15 METAR KJYO 232015Z AUTO 33015G20KT 10SM BKN048 15/04 A2988 RMK AO2 =
2014-04-23 15:55 METAR KJYO 231955Z AUTO 34016G25KT 10SM BKN050 13/03 A2987 RMK AO2 =
2014-04-23 15:35 METAR KJYO 231935Z AUTO 34017G26KT 10SM SCT050 13/03 A2987 RMK AO2 =
2014-04-23 15:15 METAR KJYO 231915Z AUTO 32022G32KT 10SM CLR 13/03 A2986 RMK AO2 =
2014-04-23 14:35 METAR KJYO 231835Z AUTO 31016G30KT 10SM SCT046 13/04 A2987 RMK AO2 =
2014-04-23 14:15 METAR KJYO 231815Z AUTO 33020G30KT 10SM OVC046 12/03 A2986 RMK AO2 =
2014-04-23 13:35 METAR KJYO 231735Z AUTO 32018G27KT 10SM OVC046 13/03 A2986 RMK AO2 =
2014-04-23 13:15 METAR KJYO 231715Z AUTO 33017G26KT 10SM BKN046 13/04 A2985 RMK AO2 =
2014-04-23 12:55 METAR KJYO 231655Z AUTO 34021G31KT 10SM OVC048 13/04 A2984 RMK AO2 =
2014-04-23 12:35 METAR KJYO 231635Z AUTO 30013G27KT 270V340 10SM OVC045 12/04 A2985 RMK AO2 =
2014-04-23 12:15 METAR KJYO 231615Z AUTO 32015G23KT 10SM BKN045 OVC050 12/04 A2985 RMK AO2 =
2014-04-23 11:55 METAR KJYO 231555Z AUTO 32013G25KT 10SM BKN043 BKN049 12/03 A2986 RMK AO2 =
2014-04-23 11:35 METAR KJYO 231535Z AUTO 33013G27KT 10SM BKN043 12/03 A2985 RMK AO2 =
2014-04-23 11:15 METAR KJYO 231515Z AUTO 34018G25KT 10SM BKN043 12/03 A2985 RMK AO2 =
2014-04-23 10:55 METAR KJYO 231455Z AUTO 34017G26KT 10SM BKN043 11/02 A2986 RMK AO2 =
2014-04-23 10:35 METAR KJYO 231435Z AUTO 31016G28KT 290V350 10SM SCT043 11/03 A2984 RMK AO2 =
2014-04-23 10:15 METAR KJYO 231415Z AUTO 32018G27KT 10SM OVC044 10/02 A2985 RMK AO2 =
2014-04-23 09:55 METAR KJYO 231355Z AUTO 32017G32KT 10SM BKN044 10/02 A2985 RMK AO2 =
2014-04-23 09:35 METAR KJYO 231335Z AUTO 32023G37KT 10SM BKN042 10/02 A2982 RMK AO2 =
2014-04-23 09:15 METAR KJYO 231315Z AUTO 31021G28KT 10SM OVC040 10/03 A2983 RMK AO2 =
2014-04-23 08:55 METAR KJYO 231255Z AUTO 34015G21KT 10SM OVC040 10/03 A2983 RMK AO2 =
2014-04-23 08:35 METAR KJYO 231235Z AUTO 33013G18KT 10SM OVC040 10/03 A2982 RMK AO2 =
2014-04-23 08:15 METAR KJYO 231215Z AUTO 34013G16KT 10SM OVC044 10/03 A2982 RMK AO2 =
2014-04-23 07:55 METAR KJYO 231155Z AUTO 34011G19KT 10SM BKN046 BKN050 10/02 A2982 RMK AO2 =
2014-04-23 07:35 METAR KJYO 231135Z AUTO 34014G18KT 10SM SCT046 10/03 A2980 RMK AO2 =
2014-04-23 07:15 METAR KJYO 231115Z AUTO 34010KT 10SM SCT046 09/03 A2979 RMK AO2 =
2014-04-23 06:55 METAR KJYO 231055Z AUTO 33009G18KT 10SM OVC048 09/03 A2979 RMK AO2 =
2014-04-23 06:35 METAR KJYO 231035Z AUTO 34004KT 10SM OVC048 09/03 A2978 RMK AO2 =
2014-04-23 06:15 METAR KJYO 231015Z AUTO 33004KT 10SM OVC048 08/03 A2977 RMK AO2 =
2014-04-23 05:55 METAR KJYO 230955Z AUTO 32007KT 10SM BKN048 08/03 A2976 RMK AO2 =
2014-04-23 05:35 METAR KJYO 230935Z AUTO 29004KT 10SM SCT050 07/02 A2976 RMK AO2 =
2014-04-23 05:15 METAR KJYO 230915Z AUTO 30004KT 10SM CLR 07/02 A2975 RMK AO2 =
2014-04-23 04:55 METAR KJYO 230855Z AUTO 32003KT 10SM CLR 08/02 A2975 RMK AO2 =
2014-04-23 04:35 METAR KJYO 230835Z AUTO 35003KT 10SM CLR 08/02 A2975 RMK AO2 =

Support USWX by starting your Amazon purchase here.